sensor_id;sensor_type;location;lat;lon;timestamp;pressure;altitude;pressure_sealevel;temperature;humidity
29909;BME280;36247;51.952;6.146;2024-02-28T00:00:27;101966.44;;;2.79;100.00
29909;BME280;36247;51.952;6.146;2024-02-28T00:02:53;101972.53;;;2.51;100.00
29909;BME280;36247;51.952;6.146;2024-02-28T00:05:18;101977.88;;;2.53;100.00
29909;BME280;36247;51.952;6.146;2024-02-28T00:07:44;101968.28;;;2.53;100.00
29909;BME280;36247;51.952;6.146;2024-02-28T00:10:09;101967.19;;;2.63;100.00
29909;BME280;36247;51.952;6.146;2024-02-28T00:12:35;101962.47;;;2.44;100.00
29909;BME280;36247;51.952;6.146;2024-02-28T00:15:00;101953.56;;;2.69;100.00
29909;BME280;36247;51.952;6.146;2024-02-28T00:17:26;101949.13;;;2.81;100.00
29909;BME280;36247;51.952;6.146;2024-02-28T00:19:51;101947.94;;;2.76;100.00
29909;BME280;36247;51.952;6.146;2024-02-28T00:22:17;101941.47;;;2.84;100.00
29909;BME280;36247;51.952;6.146;2024-02-28T00:24:42;101938.19;;;2.73;100.00
29909;BME280;36247;51.952;6.146;2024-02-28T00:27:07;101941.13;;;2.64;100.00
29909;BME280;36247;51.952;6.146;2024-02-28T00:29:33;101940.50;;;2.55;100.00
29909;BME280;36247;51.952;6.146;2024-02-28T00:31:58;101937.91;;;2.55;100.00
29909;BME280;36247;51.952;6.146;2024-02-28T00:34:23;101928.25;;;2.54;100.00
29909;BME280;36247;51.952;6.146;2024-02-28T00:36:49;101940.34;;;2.39;100.00
29909;BME280;36247;51.952;6.146;2024-02-28T00:39:14;101928.22;;;2.68;100.00
29909;BME280;36247;51.952;6.146;2024-02-28T00:41:40;101938.72;;;2.54;100.00
29909;BME280;36247;51.952;6.146;2024-02-28T00:44:05;101941.72;;;2.60;100.00
29909;BME280;36247;51.952;6.146;2024-02-28T00:46:30;101947.19;;;2.50;100.00
29909;BME280;36247;51.952;6.146;2024-02-28T00:48:56;101949.50;;;2.32;100.00
29909;BME280;36247;51.952;6.146;2024-02-28T00:51:21;101959.56;;;2.26;100.00
29909;BME280;36247;51.952;6.146;2024-02-28T00:53:46;101953.56;;;2.27;100.00
29909;BME280;36247;51.952;6.146;2024-02-28T00:56:12;101942.97;;;2.25;100.00
29909;BME280;36247;51.952;6.146;2024-02-28T00:58:37;101946.41;;;2.11;100.00
29909;BME280;36247;51.952;6.146;2024-02-28T01:01:04;101937.53;;;2.36;100.00
29909;BME280;36247;51.952;6.146;2024-02-28T01:03:29;101943.47;;;2.33;100.00
29909;BME280;36247;51.952;6.146;2024-02-28T01:05:54;101946.78;;;2.17;100.00
29909;BME280;36247;51.952;6.146;2024-02-28T01:08:20;101941.97;;;2.23;100.00
29909;BME280;36247;51.952;6.146;2024-02-28T01:10:45;101943.78;;;2.24;100.00
29909;BME280;36247;51.952;6.146;2024-02-28T01:13:11;101938.84;;;2.42;100.00
29909;BME280;36247;51.952;6.146;2024-02-28T01:15:38;101943.03;;;2.54;100.00
29909;BME280;36247;51.952;6.146;2024-02-28T01:18:04;101941.03;;;2.63;100.00
29909;BME280;36247;51.952;6.146;2024-02-28T01:20:29;101941.91;;;2.63;100.00
29909;BME280;36247;51.952;6.146;2024-02-28T01:22:55;101938.50;;;2.64;100.00
29909;BME280;36247;51.952;6.146;2024-02-28T01:25:20;101936.78;;;2.65;100.00
29909;BME280;36247;51.952;6.146;2024-02-28T01:27:46;101939.09;;;2.74;100.00
29909;BME280;36247;51.952;6.146;2024-02-28T01:30:11;101931.75;;;2.68;100.00
29909;BME280;36247;51.952;6.146;2024-02-28T01:32:37;101929.59;;;2.76;100.00
29909;BME280;36247;51.952;6.146;2024-02-28T01:35:02;101930.66;;;2.64;100.00
29909;BME280;36247;51.952;6.146;2024-02-28T01:37:28;101936.22;;;2.56;100.00
29909;BME280;36247;51.952;6.146;2024-02-28T01:39:53;101927.75;;;2.60;100.00
29909;BME280;36247;51.952;6.146;2024-02-28T01:42:19;101931.56;;;2.65;100.00
29909;BME280;36247;51.952;6.146;2024-02-28T01:44:47;101925.03;;;2.58;100.00
29909;BME280;36247;51.952;6.146;2024-02-28T01:47:13;101930.97;;;2.56;100.00
29909;BME280;36247;51.952;6.146;2024-02-28T01:49:39;101936.22;;;2.56;100.00
29909;BME280;36247;51.952;6.146;2024-02-28T01:52:05;101944.94;;;2.70;100.00
29909;BME280;36247;51.952;6.146;2024-02-28T01:54:32;101944.94;;;2.56;100.00
29909;BME280;36247;51.952;6.146;2024-02-28T01:57:00;101942.44;;;2.44;100.00
29909;BME280;36247;51.952;6.146;2024-02-28T01:59:26;101949.97;;;2.53;100.00
29909;BME280;36247;51.952;6.146;2024-02-28T02:01:51;101949.19;;;2.54;100.00
29909;BME280;36247;51.952;6.146;2024-02-28T02:04:17;101951.41;;;2.48;100.00
29909;BME280;36247;51.952;6.146;2024-02-28T02:06:44;101952.31;;;2.49;100.00
29909;BME280;36247;51.952;6.146;2024-02-28T02:09:13;101946.00;;;2.45;100.00
29909;BME280;36247;51.952;6.146;2024-02-28T02:11:38;101947.16;;;2.63;100.00
29909;BME280;36247;51.952;6.146;2024-02-28T02:14:04;101951.31;;;2.46;100.00
29909;BME280;36247;51.952;6.146;2024-02-28T02:16:29;101940.09;;;2.62;100.00
29909;BME280;36247;51.952;6.146;2024-02-28T02:18:55;101942.16;;;2.40;100.00
29909;BME280;36247;51.952;6.146;2024-02-28T02:21:30;101939.72;;;2.43;100.00
29909;BME280;36247;51.952;6.146;2024-02-28T02:23:56;101946.97;;;2.47;100.00
29909;BME280;36247;51.952;6.146;2024-02-28T02:26:22;101954.34;;;2.39;100.00
29909;BME280;36247;51.952;6.146;2024-02-28T02:28:47;101950.69;;;2.24;100.00
29909;BME280;36247;51.952;6.146;2024-02-28T02:31:13;101946.66;;;2.56;100.00
29909;BME280;36247;51.952;6.146;2024-02-28T02:33:39;101943.75;;;2.64;100.00
29909;BME280;36247;51.952;6.146;2024-02-28T02:36:05;101948.75;;;2.75;100.00
29909;BME280;36247;51.952;6.146;2024-02-28T02:38:30;101945.97;;;2.58;100.00
29909;BME280;36247;51.952;6.146;2024-02-28T02:40:55;101949.09;;;2.53;100.00
29909;BME280;36247;51.952;6.146;2024-02-28T02:43:21;101939.09;;;2.74;100.00
29909;BME280;36247;51.952;6.146;2024-02-28T02:45:46;101939.44;;;2.52;100.00
29909;BME280;36247;51.952;6.146;2024-02-28T02:48:12;101948.19;;;2.25;100.00
29909;BME280;36247;51.952;6.146;2024-02-28T02:50:37;101957.94;;;2.28;100.00
29909;BME280;36247;51.952;6.146;2024-02-28T02:53:03;101946.00;;;2.32;100.00
29909;BME280;36247;51.952;6.146;2024-02-28T02:55:29;101952.41;;;2.37;100.00
29909;BME280;36247;51.952;6.146;2024-02-28T02:57:54;101962.88;;;2.23;100.00
29909;BME280;36247;51.952;6.146;2024-02-28T03:00:20;101965.28;;;2.20;100.00
29909;BME280;36247;51.952;6.146;2024-02-28T03:02:46;101954.44;;;2.41;100.00
29909;BME280;36247;51.952;6.146;2024-02-28T03:05:11;101963.66;;;2.49;100.00
29909;BME280;36247;51.952;6.146;2024-02-28T03:07:37;101960.44;;;2.53;100.00
29909;BME280;36247;51.952;6.146;2024-02-28T03:10:02;101959.47;;;2.38;100.00
29909;BME280;36247;51.952;6.146;2024-02-28T03:12:28;101967.41;;;2.39;100.00
29909;BME280;36247;51.952;6.146;2024-02-28T03:14:54;101956.34;;;2.43;100.00
29909;BME280;36247;51.952;6.146;2024-02-28T03:17:19;101952.31;;;2.35;100.00
29909;BME280;36247;51.952;6.146;2024-02-28T03:19:44;101943.69;;;2.36;100.00
29909;BME280;36247;51.952;6.146;2024-02-28T03:22:10;101948.91;;;2.36;100.00
29909;BME280;36247;51.952;6.146;2024-02-28T03:24:35;101951.53;;;2.23;100.00
29909;BME280;36247;51.952;6.146;2024-02-28T03:27:04;101954.25;;;2.38;100.00
29909;BME280;36247;51.952;6.146;2024-02-28T03:29:29;101948.19;;;2.39;100.00
29909;BME280;36247;51.952;6.146;2024-02-28T03:31:55;101953.31;;;2.51;100.00
29909;BME280;36247;51.952;6.146;2024-02-28T03:34:21;101958.53;;;2.24;100.00
29909;BME280;36247;51.952;6.146;2024-02-28T03:36:46;101962.97;;;2.38;100.00
29909;BME280;36247;51.952;6.146;2024-02-28T03:39:12;101951.44;;;2.35;100.00
29909;BME280;36247;51.952;6.146;2024-02-28T03:41:37;101952.81;;;2.43;100.00
29909;BME280;36247;51.952;6.146;2024-02-28T03:44:03;101950.56;;;2.62;100.00
29909;BME280;36247;51.952;6.146;2024-02-28T03:46:29;101957.16;;;2.42;100.00
29909;BME280;36247;51.952;6.146;2024-02-28T03:48:55;101955.72;;;2.47;100.00
29909;BME280;36247;51.952;6.146;2024-02-28T03:51:20;101953.66;;;2.70;100.00
29909;BME280;36247;51.952;6.146;2024-02-28T03:53:46;101954.81;;;2.60;100.00
29909;BME280;36247;51.952;6.146;2024-02-28T03:56:11;101954.41;;;2.54;100.00
29909;BME280;36247;51.952;6.146;2024-02-28T03:58:37;101956.75;;;2.50;100.00
29909;BME280;36247;51.952;6.146;2024-02-28T04:01:02;101949.59;;;2.47;100.00
29909;BME280;36247;51.952;6.146;2024-02-28T04:03:29;101948.50;;;2.43;100.00
29909;BME280;36247;51.952;6.146;2024-02-28T04:05:54;101947.78;;;2.33;100.00
29909;BME280;36247;51.952;6.146;2024-02-28T04:08:19;101956.47;;;2.32;100.00
29909;BME280;36247;51.952;6.146;2024-02-28T04:10:45;101960.88;;;2.33;100.00
29909;BME280;36247;51.952;6.146;2024-02-28T04:13:10;101954.44;;;2.27;100.00
29909;BME280;36247;51.952;6.146;2024-02-28T04:15:35;101958.63;;;2.39;100.00
29909;BME280;36247;51.952;6.146;2024-02-28T04:18:02;101963.09;;;2.26;100.00
29909;BME280;36247;51.952;6.146;2024-02-28T04:20:28;101964.78;;;2.39;100.00
29909;BME280;36247;51.952;6.146;2024-02-28T04:22:54;101970.22;;;2.16;100.00
29909;BME280;36247;51.952;6.146;2024-02-28T04:25:19;101968.59;;;2.04;100.00
29909;BME280;36247;51.952;6.146;2024-02-28T04:27:44;101971.41;;;2.07;100.00
29909;BME280;36247;51.952;6.146;2024-02-28T04:30:11;101980.78;;;2.04;100.00
29909;BME280;36247;51.952;6.146;2024-02-28T04:32:37;101983.66;;;1.95;100.00
29909;BME280;36247;51.952;6.146;2024-02-28T04:35:03;101979.16;;;2.19;100.00
29909;BME280;36247;51.952;6.146;2024-02-28T04:37:29;101971.41;;;2.34;100.00
29909;BME280;36247;51.952;6.146;2024-02-28T04:39:54;101973.13;;;2.07;100.00
29909;BME280;36247;51.952;6.146;2024-02-28T04:42:19;101975.13;;;1.98;100.00
29909;BME280;36247;51.952;6.146;2024-02-28T04:44:45;101977.56;;;2.08;100.00
29909;BME280;36247;51.952;6.146;2024-02-28T04:47:10;101987.09;;;2.07;100.00
29909;BME280;36247;51.952;6.146;2024-02-28T04:49:37;101993.34;;;2.09;100.00
29909;BME280;36247;51.952;6.146;2024-02-28T04:52:04;101986.06;;;1.79;100.00
29909;BME280;36247;51.952;6.146;2024-02-28T04:54:30;101992.16;;;1.79;100.00
29909;BME280;36247;51.952;6.146;2024-02-28T04:56:55;101982.34;;;1.75;100.00
29909;BME280;36247;51.952;6.146;2024-02-28T04:59:20;101979.41;;;1.70;100.00
29909;BME280;36247;51.952;6.146;2024-02-28T05:01:46;101989.91;;;1.84;100.00
29909;BME280;36247;51.952;6.146;2024-02-28T05:04:11;101984.69;;;1.84;100.00
29909;BME280;36247;51.952;6.146;2024-02-28T05:06:37;101997.63;;;1.96;100.00
29909;BME280;36247;51.952;6.146;2024-02-28T05:09:02;101991.22;;;2.04;100.00
29909;BME280;36247;51.952;6.146;2024-02-28T05:11:28;101989.16;;;1.73;100.00
29909;BME280;36247;51.952;6.146;2024-02-28T05:13:53;101990.81;;;1.59;100.00
29909;BME280;36247;51.952;6.146;2024-02-28T05:16:18;101996.47;;;1.65;100.00
29909;BME280;36247;51.952;6.146;2024-02-28T05:18:44;101992.66;;;1.60;100.00
29909;BME280;36247;51.952;6.146;2024-02-28T05:21:11;101996.31;;;1.50;100.00
29909;BME280;36247;51.952;6.146;2024-02-28T05:23:36;102001.00;;;1.68;100.00
29909;BME280;36247;51.952;6.146;2024-02-28T05:26:02;102001.69;;;1.40;100.00
29909;BME280;36247;51.952;6.146;2024-02-28T05:28:30;102003.19;;;1.62;100.00
29909;BME280;36247;51.952;6.146;2024-02-28T05:30:56;102000.16;;;1.55;100.00
29909;BME280;36247;51.952;6.146;2024-02-28T05:33:21;101999.88;;;1.64;100.00
29909;BME280;36247;51.952;6.146;2024-02-28T05:35:47;101998.00;;;1.75;100.00
29909;BME280;36247;51.952;6.146;2024-02-28T05:38:12;101996.09;;;1.72;100.00
29909;BME280;36247;51.952;6.146;2024-02-28T05:40:38;102000.59;;;1.62;100.00
29909;BME280;36247;51.952;6.146;2024-02-28T05:43:03;102005.09;;;1.51;100.00
29909;BME280;36247;51.952;6.146;2024-02-28T05:45:29;102007.41;;;1.59;100.00
29909;BME280;36247;51.952;6.146;2024-02-28T05:47:55;102014.50;;;1.49;100.00
29909;BME280;36247;51.952;6.146;2024-02-28T05:50:20;102012.25;;;1.41;100.00
29909;BME280;36247;51.952;6.146;2024-02-28T05:52:46;102011.50;;;1.56;100.00
29909;BME280;36247;51.952;6.146;2024-02-28T05:55:11;102013.13;;;1.54;100.00
29909;BME280;36247;51.952;6.146;2024-02-28T05:57:37;102019.03;;;1.51;100.00
29909;BME280;36247;51.952;6.146;2024-02-28T06:00:03;102020.59;;;1.49;100.00
29909;BME280;36247;51.952;6.146;2024-02-28T06:02:37;102030.09;;;1.35;100.00
29909;BME280;36247;51.952;6.146;2024-02-28T06:05:03;102025.19;;;1.40;100.00
29909;BME280;36247;51.952;6.146;2024-02-28T06:07:28;102033.50;;;1.34;100.00
29909;BME280;36247;51.952;6.146;2024-02-28T06:09:53;102025.47;;;1.31;100.00
29909;BME280;36247;51.952;6.146;2024-02-28T06:12:19;102034.44;;;1.60;100.00
29909;BME280;36247;51.952;6.146;2024-02-28T06:14:44;102035.75;;;1.41;100.00
29909;BME280;36247;51.952;6.146;2024-02-28T06:17:10;102029.59;;;1.53;100.00
29909;BME280;36247;51.952;6.146;2024-02-28T06:19:35;102033.47;;;1.46;100.00
29909;BME280;36247;51.952;6.146;2024-02-28T06:22:00;102030.63;;;1.43;100.00
29909;BME280;36247;51.952;6.146;2024-02-28T06:24:26;102034.69;;;1.51;100.00
29909;BME280;36247;51.952;6.146;2024-02-28T06:26:51;102045.00;;;1.62;100.00
29909;BME280;36247;51.952;6.146;2024-02-28T06:29:17;102051.09;;;1.37;100.00
29909;BME280;36247;51.952;6.146;2024-02-28T06:31:42;102047.69;;;1.38;100.00
29909;BME280;36247;51.952;6.146;2024-02-28T06:34:07;102044.47;;;1.54;100.00
29909;BME280;36247;51.952;6.146;2024-02-28T06:36:33;102043.13;;;1.47;100.00
29909;BME280;36247;51.952;6.146;2024-02-28T06:38:58;102051.00;;;1.61;100.00
29909;BME280;36247;51.952;6.146;2024-02-28T06:41:24;102059.31;;;1.55;100.00
29909;BME280;36247;51.952;6.146;2024-02-28T06:43:49;102064.19;;;1.62;100.00
29909;BME280;36247;51.952;6.146;2024-02-28T06:46:14;102061.66;;;1.64;100.00
29909;BME280;36247;51.952;6.146;2024-02-28T06:48:40;102067.25;;;1.82;100.00
29909;BME280;36247;51.952;6.146;2024-02-28T06:51:05;102067.16;;;1.80;100.00
29909;BME280;36247;51.952;6.146;2024-02-28T06:53:30;102067.75;;;1.76;100.00
29909;BME280;36247;51.952;6.146;2024-02-28T06:55:56;102072.16;;;1.77;100.00
29909;BME280;36247;51.952;6.146;2024-02-28T06:58:21;102071.13;;;1.87;100.00
29909;BME280;36247;51.952;6.146;2024-02-28T07:00:50;102078.03;;;1.86;100.00
29909;BME280;36247;51.952;6.146;2024-02-28T07:03:15;102073.13;;;1.91;100.00
29909;BME280;36247;51.952;6.146;2024-02-28T07:05:41;102073.00;;;1.89;100.00
29909;BME280;36247;51.952;6.146;2024-02-28T07:08:06;102075.47;;;2.00;100.00
29909;BME280;36247;51.952;6.146;2024-02-28T07:10:32;102072.13;;;1.89;100.00
29909;BME280;36247;51.952;6.146;2024-02-28T07:12:57;102069.34;;;1.99;100.00
29909;BME280;36247;51.952;6.146;2024-02-28T07:15:23;102059.31;;;2.19;100.00
29909;BME280;36247;51.952;6.146;2024-02-28T07:17:48;102069.75;;;2.05;100.00
29909;BME280;36247;51.952;6.146;2024-02-28T07:20:13;102075.66;;;2.03;100.00
29909;BME280;36247;51.952;6.146;2024-02-28T07:22:39;102080.78;;;2.01;100.00
29909;BME280;36247;51.952;6.146;2024-02-28T07:25:05;102079.63;;;2.09;100.00
29909;BME280;36247;51.952;6.146;2024-02-28T07:27:32;102072.13;;;2.27;100.00
29909;BME280;36247;51.952;6.146;2024-02-28T07:29:57;102077.25;;;2.39;100.00
29909;BME280;36247;51.952;6.146;2024-02-28T07:32:23;102085.81;;;2.37;100.00
29909;BME280;36247;51.952;6.146;2024-02-28T07:34:48;102084.41;;;2.42;100.00
29909;BME280;36247;51.952;6.146;2024-02-28T07:37:14;102094.53;;;2.37;100.00
29909;BME280;36247;51.952;6.146;2024-02-28T07:39:39;102100.31;;;2.58;100.00
29909;BME280;36247;51.952;6.146;2024-02-28T07:42:05;102104.63;;;2.58;100.00
29909;BME280;36247;51.952;6.146;2024-02-28T07:44:30;102112.47;;;2.58;100.00
29909;BME280;36247;51.952;6.146;2024-02-28T07:46:57;102101.31;;;2.60;100.00
29909;BME280;36247;51.952;6.146;2024-02-28T07:49:23;102105.03;;;2.64;100.00
29909;BME280;36247;51.952;6.146;2024-02-28T07:51:48;102099.91;;;2.65;100.00
29909;BME280;36247;51.952;6.146;2024-02-28T07:54:14;102102.81;;;2.70;100.00
29909;BME280;36247;51.952;6.146;2024-02-28T07:56:39;102106.88;;;2.78;100.00
29909;BME280;36247;51.952;6.146;2024-02-28T07:59:04;102105.25;;;2.67;100.00
29909;BME280;36247;51.952;6.146;2024-02-28T08:01:30;102099.31;;;2.83;100.00
29909;BME280;36247;51.952;6.146;2024-02-28T08:03:55;102106.75;;;2.63;100.00
29909;BME280;36247;51.952;6.146;2024-02-28T08:06:21;102120.53;;;2.74;100.00
29909;BME280;36247;51.952;6.146;2024-02-28T08:08:47;102119.06;;;2.91;100.00
29909;BME280;36247;51.952;6.146;2024-02-28T08:11:12;102121.66;;;3.18;100.00
29909;BME280;36247;51.952;6.146;2024-02-28T08:13:38;102124.19;;;2.76;100.00
29909;BME280;36247;51.952;6.146;2024-02-28T08:16:04;102125.69;;;2.99;100.00
29909;BME280;36247;51.952;6.146;2024-02-28T08:18:29;102123.06;;;3.13;100.00
29909;BME280;36247;51.952;6.146;2024-02-28T08:20:55;102122.72;;;3.35;100.00
29909;BME280;36247;51.952;6.146;2024-02-28T08:23:23;102128.84;;;3.35;100.00
29909;BME280;36247;51.952;6.146;2024-02-28T08:25:49;102136.16;;;2.99;100.00
29909;BME280;36247;51.952;6.146;2024-02-28T08:28:14;102137.22;;;3.30;100.00
29909;BME280;36247;51.952;6.146;2024-02-28T08:30:39;102148.84;;;2.93;100.00
29909;BME280;36247;51.952;6.146;2024-02-28T08:33:08;102152.66;;;2.98;100.00
29909;BME280;36247;51.952;6.146;2024-02-28T08:35:35;102146.41;;;3.23;100.00
29909;BME280;36247;51.952;6.146;2024-02-28T08:38:01;102148.56;;;3.02;100.00
29909;BME280;36247;51.952;6.146;2024-02-28T08:40:28;102140.94;;;3.47;100.00
29909;BME280;36247;51.952;6.146;2024-02-28T08:42:54;102134.22;;;3.65;100.00
29909;BME280;36247;51.952;6.146;2024-02-28T08:45:19;102140.84;;;3.45;100.00
29909;BME280;36247;51.952;6.146;2024-02-28T08:47:44;102141.72;;;3.87;100.00
29909;BME280;36247;51.952;6.146;2024-02-28T08:50:10;102149.38;;;3.56;100.00
29909;BME280;36247;51.952;6.146;2024-02-28T08:52:36;102162.91;;;3.49;100.00
29909;BME280;36247;51.952;6.146;2024-02-28T08:55:01;102164.72;;;3.50;100.00
29909;BME280;36247;51.952;6.146;2024-02-28T08:57:27;102173.00;;;3.43;100.00
29909;BME280;36247;51.952;6.146;2024-02-28T08:59:53;102158.47;;;3.76;100.00
29909;BME280;36247;51.952;6.146;2024-02-28T09:02:18;102160.88;;;3.45;100.00
29909;BME280;36247;51.952;6.146;2024-02-28T09:04:44;102169.38;;;3.41;100.00
29909;BME280;36247;51.952;6.146;2024-02-28T09:07:11;102160.94;;;3.60;100.00
29909;BME280;36247;51.952;6.146;2024-02-28T09:09:41;102161.00;;;3.75;100.00
29909;BME280;36247;51.952;6.146;2024-02-28T09:12:07;102157.84;;;3.52;100.00
29909;BME280;36247;51.952;6.146;2024-02-28T09:14:32;102156.81;;;3.63;100.00
29909;BME280;36247;51.952;6.146;2024-02-28T09:16:58;102158.00;;;3.97;100.00
29909;BME280;36247;51.952;6.146;2024-02-28T09:19:29;102156.06;;;4.08;100.00
29909;BME280;36247;51.952;6.146;2024-02-28T09:21:54;102159.69;;;4.10;100.00
29909;BME280;36247;51.952;6.146;2024-02-28T09:24:20;102152.50;;;4.35;100.00
29909;BME280;36247;51.952;6.146;2024-02-28T09:26:45;102153.22;;;4.63;100.00
29909;BME280;36247;51.952;6.146;2024-02-28T09:29:10;102144.34;;;4.46;100.00
29909;BME280;36247;51.952;6.146;2024-02-28T09:31:36;102151.78;;;4.53;100.00
29909;BME280;36247;51.952;6.146;2024-02-28T09:34:01;102142.34;;;4.41;100.00
29909;BME280;36247;51.952;6.146;2024-02-28T09:36:32;102145.81;;;4.70;100.00
29909;BME280;36247;51.952;6.146;2024-02-28T09:38:58;102144.63;;;4.65;100.00
29909;BME280;36247;51.952;6.146;2024-02-28T09:41:23;102134.94;;;4.79;100.00
29909;BME280;36247;51.952;6.146;2024-02-28T09:43:51;102150.50;;;4.76;100.00
29909;BME280;36247;51.952;6.146;2024-02-28T09:46:17;102151.16;;;4.72;100.00
29909;BME280;36247;51.952;6.146;2024-02-28T09:48:42;102135.50;;;4.73;100.00
29909;BME280;36247;51.952;6.146;2024-02-28T09:51:08;102136.56;;;4.92;100.00
29909;BME280;36247;51.952;6.146;2024-02-28T09:53:38;102136.97;;;5.46;100.00
29909;BME280;36247;51.952;6.146;2024-02-28T09:56:04;102133.06;;;5.23;100.00
29909;BME280;36247;51.952;6.146;2024-02-28T09:58:31;102129.09;;;5.62;100.00
29909;BME280;36247;51.952;6.146;2024-02-28T10:00:59;102133.72;;;5.83;100.00
29909;BME280;36247;51.952;6.146;2024-02-28T10:03:29;102134.78;;;5.87;100.00
29909;BME280;36247;51.952;6.146;2024-02-28T10:05:55;102138.41;;;5.89;100.00
29909;BME280;36247;51.952;6.146;2024-02-28T10:08:20;102132.44;;;6.59;100.00
29909;BME280;36247;51.952;6.146;2024-02-28T10:10:49;102144.22;;;6.49;100.00
29909;BME280;36247;51.952;6.146;2024-02-28T10:13:17;102134.97;;;6.23;100.00
29909;BME280;36247;51.952;6.146;2024-02-28T10:15:43;102146.19;;;6.02;100.00
29909;BME280;36247;51.952;6.146;2024-02-28T10:18:09;102137.78;;;6.09;100.00
29909;BME280;36247;51.952;6.146;2024-02-28T10:20:35;102140.72;;;6.32;100.00
29909;BME280;36247;51.952;6.146;2024-02-28T10:23:04;102140.97;;;6.20;100.00
29909;BME280;36247;51.952;6.146;2024-02-28T10:25:30;102154.59;;;5.96;100.00
29909;BME280;36247;51.952;6.146;2024-02-28T10:28:00;102143.94;;;6.61;100.00
29909;BME280;36247;51.952;6.146;2024-02-28T10:30:26;102146.41;;;6.23;100.00
29909;BME280;36247;51.952;6.146;2024-02-28T10:32:52;102151.25;;;6.66;100.00
29909;BME280;36247;51.952;6.146;2024-02-28T10:35:18;102134.75;;;7.80;100.00
29909;BME280;36247;51.952;6.146;2024-02-28T10:37:45;102134.13;;;7.86;100.00
29909;BME280;36247;51.952;6.146;2024-02-28T10:40:13;102128.38;;;7.94;100.00
29909;BME280;36247;51.952;6.146;2024-02-28T10:42:42;102133.50;;;7.16;100.00
29909;BME280;36247;51.952;6.146;2024-02-28T10:45:09;102141.25;;;7.13;100.00
29909;BME280;36247;51.952;6.146;2024-02-28T10:47:38;102145.59;;;6.59;100.00
29909;BME280;36247;51.952;6.146;2024-02-28T10:50:03;102136.97;;;7.33;100.00
29909;BME280;36247;51.952;6.146;2024-02-28T10:52:33;102146.38;;;6.92;100.00
29909;BME280;36247;51.952;6.146;2024-02-28T10:54:59;102142.84;;;7.10;100.00
29909;BME280;36247;51.952;6.146;2024-02-28T10:57:26;102129.06;;;7.71;100.00
29909;BME280;36247;51.952;6.146;2024-02-28T10:59:54;102128.19;;;8.50;100.00
29909;BME280;36247;51.952;6.146;2024-02-28T11:02:20;102124.00;;;8.97;100.00
29909;BME280;36247;51.952;6.146;2024-02-28T11:04:47;102129.47;;;8.00;100.00
29909;BME280;36247;51.952;6.146;2024-02-28T11:07:19;102131.63;;;7.89;100.00
29909;BME280;36247;51.952;6.146;2024-02-28T11:09:45;102120.97;;;7.48;100.00
29909;BME280;36247;51.952;6.146;2024-02-28T11:12:37;102120.78;;;7.63;100.00
29909;BME280;36247;51.952;6.146;2024-02-28T11:15:05;102123.38;;;7.81;100.00
29909;BME280;36247;51.952;6.146;2024-02-28T11:17:34;102122.75;;;7.49;100.00
29909;BME280;36247;51.952;6.146;2024-02-28T11:20:11;102113.22;;;7.51;100.00
29909;BME280;36247;51.952;6.146;2024-02-28T11:22:36;102116.59;;;7.49;100.00
29909;BME280;36247;51.952;6.146;2024-02-28T11:25:01;102108.81;;;7.52;100.00
29909;BME280;36247;51.952;6.146;2024-02-28T11:27:27;102109.97;;;7.76;100.00
29909;BME280;36247;51.952;6.146;2024-02-28T11:29:52;102116.69;;;7.70;100.00
29909;BME280;36247;51.952;6.146;2024-02-28T11:32:18;102111.53;;;6.98;100.00
29909;BME280;36247;51.952;6.146;2024-02-28T11:34:43;102115.59;;;7.27;100.00
29909;BME280;36247;51.952;6.146;2024-02-28T11:37:10;102108.69;;;7.68;100.00
29909;BME280;36247;51.952;6.146;2024-02-28T11:39:35;102116.19;;;7.59;100.00
29909;BME280;36247;51.952;6.146;2024-02-28T11:42:14;102107.53;;;7.81;100.00
29909;BME280;36247;51.952;6.146;2024-02-28T11:44:40;102108.34;;;7.61;100.00
29909;BME280;36247;51.952;6.146;2024-02-28T11:47:08;102107.00;;;7.69;100.00
29909;BME280;36247;51.952;6.146;2024-02-28T11:49:36;102097.75;;;7.79;100.00
29909;BME280;36247;51.952;6.146;2024-02-28T11:52:03;102108.16;;;7.75;100.00
29909;BME280;36247;51.952;6.146;2024-02-28T11:54:29;102102.31;;;7.44;100.00
29909;BME280;36247;51.952;6.146;2024-02-28T11:56:55;102105.78;;;7.62;100.00
29909;BME280;36247;51.952;6.146;2024-02-28T11:59:20;102100.97;;;7.53;100.00
29909;BME280;36247;51.952;6.146;2024-02-28T12:01:45;102094.47;;;7.65;100.00
29909;BME280;36247;51.952;6.146;2024-02-28T12:04:12;102093.00;;;7.52;100.00
29909;BME280;36247;51.952;6.146;2024-02-28T12:06:39;102087.94;;;7.76;100.00
29909;BME280;36247;51.952;6.146;2024-02-28T12:09:06;102082.13;;;7.64;100.00
29909;BME280;36247;51.952;6.146;2024-02-28T12:11:35;102083.06;;;7.46;100.00
29909;BME280;36247;51.952;6.146;2024-02-28T12:14:03;102087.13;;;7.57;100.00
29909;BME280;36247;51.952;6.146;2024-02-28T12:16:30;102076.84;;;7.64;100.00
29909;BME280;36247;51.952;6.146;2024-02-28T12:18:55;102078.59;;;7.83;100.00
29909;BME280;36247;51.952;6.146;2024-02-28T12:21:21;102078.53;;;7.62;100.00
29909;BME280;36247;51.952;6.146;2024-02-28T12:23:47;102066.34;;;7.85;100.00
29909;BME280;36247;51.952;6.146;2024-02-28T12:26:16;102070.59;;;8.01;100.00
29909;BME280;36247;51.952;6.146;2024-02-28T12:28:43;102059.72;;;8.14;100.00
29909;BME280;36247;51.952;6.146;2024-02-28T12:31:08;102056.47;;;8.41;100.00
29909;BME280;36247;51.952;6.146;2024-02-28T12:33:37;102049.94;;;8.33;100.00
29909;BME280;36247;51.952;6.146;2024-02-28T12:36:02;102049.00;;;8.30;100.00
29909;BME280;36247;51.952;6.146;2024-02-28T12:38:29;102040.69;;;8.42;100.00
29909;BME280;36247;51.952;6.146;2024-02-28T12:40:54;102043.66;;;8.29;100.00
29909;BME280;36247;51.952;6.146;2024-02-28T12:43:20;102037.56;;;8.51;100.00